Time;durP1;ratioP1;P1;durP2;ratioP2;P2;SDS_P1;SDS_P2;PMS_P1;PMS_P2;Temp;Humidity;BMP_temperature;BMP_pressure;BME280_temperature;BME280_humidity;BME280_pressure;Samples;Min_cycle;Max_cycle;Signal;HPM_P1;HPM_P2
2021/01/19 00:06:17;0.00;0.00;0.62;0.00;0.00;0.62;;;;;7.20;1.00;;;;;;2294695;60;1396;-84
2021/01/19 00:18:34;214097.00;0.71;370.19;38395.00;0.13;67.11;;;;;7.80;1.00;;;;;;2290483;60;1160;-85
2021/01/19 01:02:56;497753.00;1.66;857.96;85592.00;0.29;148.70;;;;;10.20;1.00;;;;;;2286612;60;1394;-85
2021/01/19 01:10:18;357612.00;1.19;616.94;80575.00;0.27;140.03;;;;;9.90;1.00;;;;;;2342495;39;3796;31
2021/01/19 01:25:11;596042.00;1.99;1027.39;88043.00;0.29;152.93;;;;;10.70;1.00;;;;;;2291158;60;1404;-85
2021/01/19 01:27:37;396951.00;1.32;684.56;0.00;0.00;0.62;;;;;10.70;1.00;;;;;;2342217;39;3687;31
2021/01/19 01:32:32;392090.00;1.31;676.21;0.00;0.00;0.62;;;;;10.40;1.00;;;;;;2286325;60;1192;-85
2021/01/19 01:37:26;488319.00;1.63;841.72;0.00;0.00;0.62;;;;;10.30;1.00;;;;;;2286607;60;1973;-82
2021/01/19 02:04:34;442335.00;1.47;762.60;0.00;0.00;0.62;;;;;8.20;1.00;;;;;;2491560;39;3511;31
2021/01/19 02:24:31;23555.00;0.08;41.43;0.00;0.00;0.62;;;;;7.10;1.00;;;;;;2290554;60;1367;-85
2021/01/19 02:37:02;46916.00;0.16;81.85;0.00;0.00;0.62;;;;;7.40;1.00;;;;;;2290609;60;1980;-86
2021/01/19 02:39:43;127105.00;0.42;220.34;29115.00;0.10;51.05;;;;;6.90;1.00;;;;;;2288943;60;976;-84
2021/01/19 02:49:33;74559.00;0.25;129.64;0.00;0.00;0.62;;;;;7.30;1.00;;;;;;2290359;60;1392;-83
2021/01/19 02:57:25;32825.00;0.11;57.47;0.00;0.00;0.62;;;;;8.30;1.00;;;;;;2286703;60;1973;-87
2021/01/19 03:00:10;45758.00;0.15;79.85;0.00;0.00;0.62;;;;;8.40;1.00;;;;;;2267730;61;1388;-84
2021/01/19 03:05:10;0.00;0.00;0.62;0.00;0.00;0.62;;;;;8.00;1.00;;;;;;2291297;60;1328;-86
2021/01/19 03:12:35;50525.00;0.17;88.09;0.00;0.00;0.62;;;;;7.90;1.00;;;;;;2290476;60;1409;-85
2021/01/19 03:17:30;33303.00;0.11;58.30;0.00;0.00;0.62;;;;;7.80;1.00;;;;;;2286437;60;1895;-86
2021/01/19 03:22:25;162520.00;0.54;281.38;0.00;0.00;0.62;;;;;7.30;1.00;;;;;;2286122;60;1392;-81
2021/01/19 03:24:51;0.00;0.00;0.62;0.00;0.00;0.62;;;;;6.70;1.00;;;;;;2285174;60;1085;-84
2021/01/19 03:27:18;0.00;0.00;0.62;0.00;0.00;0.62;;;;;6.90;1.00;;;;;;2339886;39;3861;31
2021/01/19 03:32:12;0.00;0.00;0.62;0.00;0.00;0.62;;;;;7.10;1.00;;;;;;2286689;60;1187;-84
2021/01/19 03:44:32;26805.00;0.09;47.05;0.00;0.00;0.62;;;;;6.80;1.00;;;;;;2291060;60;1399;-84
2021/01/19 03:46:58;0.00;0.00;0.62;0.00;0.00;0.62;;;;;7.10;1.00;;;;;;2282387;60;1122;-83
2021/01/19 03:49:24;71714.00;0.24;124.72;0.00;0.00;0.62;;;;;7.10;1.00;;;;;;2289237;60;1031;-84
2021/01/19 03:51:51;67857.00;0.23;118.06;0.00;0.00;0.62;;;;;6.90;1.00;;;;;;2289250;60;1490;-86
2021/01/19 03:56:46;0.00;0.00;0.62;0.00;0.00;0.62;;;;;6.70;1.00;;;;;;2287682;61;1879;-86
2021/01/19 04:01:42;17003.00;0.06;30.08;0.00;0.00;0.62;;;;;7.40;1.00;;;;;;2287620;61;1484;-87
2021/01/19 04:06:36;0.00;0.00;0.62;0.00;0.00;0.62;;;;;7.50;1.00;;;;;;2292036;60;1293;-86
2021/01/19 04:11:30;195692.00;0.65;338.51;2288.00;0.01;4.59;;;;;6.90;1.00;;;;;;2286551;60;1498;-85
2021/01/19 04:13:57;0.00;0.00;0.62;0.00;0.00;0.62;;;;;7.20;1.00;;;;;;2276267;60;1029;-85
2021/01/19 04:16:24;65964.00;0.22;114.79;0.00;0.00;0.62;;;;;7.60;1.00;;;;;;2270115;61;1923;-86
2021/01/19 04:18:51;0.00;0.00;0.62;0.00;0.00;0.62;;;;;7.90;1.00;;;;;;2269984;60;1057;-86
2021/01/19 04:21:17;40150.00;0.13;70.15;0.00;0.00;0.62;;;;;7.80;1.00;;;;;;2276477;61;1386;-86
2021/01/19 04:23:44;71367.00;0.24;124.12;0.00;0.00;0.62;;;;;7.90;1.00;;;;;;2269720;61;1001;-86
2021/01/19 04:31:06;0.00;0.00;0.62;0.00;0.00;0.62;;;;;7.60;1.00;;;;;;2291839;60;1408;-86
2021/01/19 04:33:32;0.00;0.00;0.62;0.00;0.00;0.62;;;;;6.90;1.00;;;;;;2276753;60;1116;-85
2021/01/19 04:35:59;192650.00;0.64;333.27;53975.00;0.18;94.06;;;;;6.40;1.00;;;;;;2276589;60;1066;-85
2021/01/19 04:38:26;62810.00;0.21;109.33;0.00;0.00;0.62;;;;;6.70;1.00;;;;;;2276771;60;1931;-85
2021/01/19 04:48:16;43179.00;0.14;75.39;0.00;0.00;0.62;;;;;7.80;1.00;;;;;;2290501;60;1392;-85
2021/01/19 05:03:20;0.00;0.00;0.62;0.00;0.00;0.62;;;;;9.70;1.00;;;;;;2287350;61;1273;-88
2021/01/19 05:06:15;47313.00;0.16;82.54;0.00;0.00;0.62;;;;;9.80;1.00;;;;;;2285100;60;1008;-84
2021/01/19 05:08:59;0.00;0.00;0.62;0.00;0.00;0.62;;;;;9.70;1.00;;;;;;2285135;60;1100;-85
2021/01/19 05:11:31;13876.00;0.05;24.66;0.00;0.00;0.62;;;;;9.80;1.00;;;;;;2284465;60;1501;-86
2021/01/19 05:14:00;22951.00;0.08;40.38;0.00;0.00;0.62;;;;;9.90;1.00;;;;;;2284840;60;1100;-85
2021/01/19 05:16:32;0.00;0.00;0.62;0.00;0.00;0.62;;;;;10.00;1.00;;;;;;2284757;60;1079;-86
2021/01/19 05:19:01;0.00;0.00;0.62;0.00;0.00;0.62;;;;;10.00;1.00;;;;;;2284961;60;1115;-86
2021/01/19 05:23:58;112446.00;0.37;195.05;16046.00;0.05;28.42;;;;;9.60;1.00;;;;;;2291297;60;1293;-87
2021/01/19 05:26:25;0.00;0.00;0.62;0.00;0.00;0.62;;;;;9.50;1.00;;;;;;2288630;60;973;-86
2021/01/19 05:31:22;100911.00;0.34;175.14;0.00;0.00;0.62;;;;;9.40;1.00;;;;;;2287148;61;1430;-86
2021/01/19 05:38:46;663804.00;2.21;1144.53;147016.00;0.49;254.66;;;;;9.70;1.00;;;;;;2290182;60;1915;-85
2021/01/19 05:53:50;423925.00;1.41;730.94;116862.00;0.39;202.67;;;;;8.20;1.00;;;;;;2294417;60;1376;-85
2021/01/19 06:01:24;369551.00;1.23;637.46;89952.00;0.30;156.22;;;;;8.00;1.00;;;;;;2295245;60;1292;-87
2021/01/19 06:26:08;135830.00;0.45;235.38;43435.00;0.14;75.83;;;;;8.10;1.00;;;;;;2289707;60;1163;-86
2021/01/19 06:31:11;0.00;0.00;0.62;0.00;0.00;0.62;;;;;8.10;1.00;;;;;;2286749;60;1432;-86
2021/01/19 06:36:07;191418.00;0.64;331.15;91115.00;0.30;158.23;;;;;8.60;1.00;;;;;;2286582;60;1365;-84
2021/01/19 06:41:02;200349.00;0.67;346.52;88587.00;0.30;153.87;;;;;7.70;1.00;;;;;;2290504;60;1435;-86
2021/01/19 06:46:01;48307.00;0.16;84.26;0.00;0.00;0.62;;;;;8.10;1.00;;;;;;2294234;60;1372;-85
2021/01/19 06:51:01;83233.00;0.28;144.62;0.00;0.00;0.62;;;;;7.90;1.00;;;;;;2286692;60;1502;-85
2021/01/19 06:56:11;226000.00;0.75;390.67;28765.00;0.10;50.45;;;;;7.50;1.00;;;;;;2286327;60;1412;-85
2021/01/19 07:03:38;41406.00;0.14;72.32;0.00;0.00;0.62;;;;;7.90;1.00;;;;;;2291160;60;1446;-85
2021/01/19 07:25:47;47816.00;0.16;83.41;0.00;0.00;0.62;;;;;8.70;1.00;;;;;;2286838;60;1400;-86
2021/01/19 07:28:14;6420.00;0.02;11.75;0.00;0.00;0.62;;;;;8.80;1.00;;;;;;2285201;60;921;-86
2021/01/19 07:30:40;0.00;0.00;0.62;0.00;0.00;0.62;;;;;9.30;1.00;;;;;;2276736;61;1483;-84
2021/01/19 07:35:36;140216.00;0.47;242.94;0.00;0.00;0.62;;;;;9.40;1.00;;;;;;2282577;61;1421;-85
2021/01/19 07:38:02;59622.00;0.20;103.82;0.00;0.00;0.62;;;;;9.60;1.00;;;;;;2276523;61;1915;-86
2021/01/19 07:40:29;29870.00;0.10;52.36;0.00;0.00;0.62;;;;;9.60;1.00;;;;;;2276358;60;1452;-86
2021/01/19 07:42:58;19839.00;0.07;34.99;0.00;0.00;0.62;;;;;9.60;1.00;;;;;;2273510;60;1028;-85
2021/01/19 07:45:33;0.00;0.00;0.62;0.00;0.00;0.62;;;;;9.20;1.00;;;;;;2276799;60;1091;-83
2021/01/19 07:50:39;44865.00;0.15;78.30;0.00;0.00;0.62;;;;;9.00;1.00;;;;;;2287474;60;1439;-85
2021/01/19 07:53:06;245709.00;0.82;424.57;87820.00;0.29;152.54;;;;;8.40;1.00;;;;;;2285524;60;1095;-85
2021/01/19 07:55:42;147924.00;0.49;256.23;0.00;0.00;0.62;;;;;8.80;1.00;;;;;;2285558;60;1098;-88
2021/01/19 07:58:15;237058.00;0.79;409.69;78273.00;0.26;136.05;;;;;9.20;1.00;;;;;;2275002;60;1908;-84
2021/01/19 08:00:44;375618.00;1.25;647.89;95453.00;0.32;165.72;;;;;9.00;1.00;;;;;;2274882;60;1362;-84
2021/01/19 08:03:10;196515.00;0.66;339.92;92362.00;0.31;160.39;;;;;9.00;1.00;;;;;;2276750;61;977;-85
2021/01/19 08:05:37;274903.00;0.92;474.77;93122.00;0.31;161.70;;;;;9.00;1.00;;;;;;2276775;61;1079;-83
2021/01/19 08:08:14;219916.00;0.73;380.20;83126.00;0.28;144.44;;;;;8.70;1.00;;;;;;2276818;60;1112;-84
2021/01/19 08:10:41;262598.00;0.88;453.62;93554.00;0.31;162.44;;;;;8.60;1.00;;;;;;2276607;61;1465;-84
2021/01/19 08:15:36;806.00;0.00;2.02;0.00;0.00;0.62;;;;;8.70;1.00;;;;;;2287018;60;1499;-85
2021/01/19 08:35:21;474508.00;1.58;817.95;0.00;0.00;0.62;;;;;8.10;1.00;;;;;;2278917;61;1410;-81
2021/01/19 08:37:50;45446.00;0.15;79.31;0.00;0.00;0.62;;;;;8.10;1.00;;;;;;2273019;61;2013;-85
2021/01/19 08:40:22;32809.00;0.11;57.44;0.00;0.00;0.62;;;;;8.10;1.00;;;;;;2273056;61;1341;-81
2021/01/19 08:42:49;58078.00;0.19;101.15;0.00;0.00;0.62;;;;;8.30;1.00;;;;;;2276614;61;1088;-83
2021/01/19 08:45:22;69296.00;0.23;120.54;0.00;0.00;0.62;;;;;8.00;1.00;;;;;;2276717;61;1001;-83
2021/01/19 08:47:52;193568.00;0.65;334.85;23097.00;0.08;40.63;;;;;7.50;1.00;;;;;;2276773;61;992;-82
2021/01/19 08:50:18;0.00;0.00;0.62;0.00;0.00;0.62;;;;;7.10;1.00;;;;;;2266327;61;1341;-80
2021/01/19 08:52:46;0.00;0.00;0.62;0.00;0.00;0.62;;;;;7.00;1.00;;;;;;2269460;61;990;-83
2021/01/19 08:55:20;23191.00;0.08;40.80;0.00;0.00;0.62;;;;;7.50;1.00;;;;;;2276465;61;1031;-83
2021/01/19 08:57:50;105728.00;0.35;183.46;0.00;0.00;0.62;;;;;7.70;1.00;;;;;;2269551;61;2022;-84
2021/01/19 09:00:28;32700.00;0.11;57.26;0.00;0.00;0.62;;;;;8.20;1.00;;;;;;2276688;61;1344;-85
2021/01/19 09:02:57;217363.00;0.72;375.81;90866.00;0.30;157.80;;;;;8.40;1.00;;;;;;2266646;61;977;-84
2021/01/19 09:05:28;308638.00;1.03;532.77;88453.00;0.29;153.64;;;;;8.70;1.00;;;;;;2266281;61;916;-83
2021/01/19 09:07:58;459741.00;1.53;792.54;85245.00;0.28;148.10;;;;;8.50;1.00;;;;;;2271986;61;1057;-84
2021/01/19 09:10:26;424980.00;1.42;732.75;88418.00;0.29;153.58;;;;;8.70;1.00;;;;;;2262221;61;1448;-83
2021/01/19 09:12:54;389047.00;1.30;670.98;86334.00;0.29;149.98;;;;;8.50;1.00;;;;;;2262084;61;1024;-85
2021/01/19 09:15:21;383309.00;1.28;661.11;81824.00;0.27;142.19;;;;;8.60;1.00;;;;;;2263872;61;967;-83
2021/01/19 09:17:52;651932.00;2.17;1123.98;160662.00;0.54;278.18;;;;;8.70;1.00;;;;;;2264021;61;2000;-82
2021/01/19 09:20:19;329148.00;1.10;568.02;86714.00;0.29;150.63;;;;;8.90;1.00;;;;;;2263898;61;1443;-85
2021/01/19 09:22:45;377573.00;1.26;651.25;89953.00;0.30;156.23;;;;;9.20;1.00;;;;;;2263873;61;1120;-83
2021/01/19 09:25:14;274131.00;0.91;473.45;90951.00;0.30;157.95;;;;;9.70;1.00;;;;;;2264824;61;948;-83
2021/01/19 09:27:40;395990.00;1.32;682.91;84744.00;0.28;147.23;;;;;9.40;1.00;;;;;;2268077;61;1012;-85
2021/01/19 09:30:09;130451.00;0.43;226.11;0.00;0.00;0.62;;;;;9.50;1.00;;;;;;2268151;61;1373;-84
2021/01/19 09:32:39;119402096.00;398.01;68957928.00;95243.00;0.32;165.36;;;;;9.70;1.00;;;;;;2259590;61;1021;-84
2021/01/19 09:35:06;50454.00;0.17;87.97;0.00;0.00;0.62;;;;;9.90;1.00;;;;;;2267790;61;987;-83
2021/01/19 09:37:33;55115.00;0.18;96.03;0.00;0.00;0.62;;;;;10.20;1.00;;;;;;2268056;61;1981;-83
2021/01/19 09:39:59;22121.00;0.07;38.94;0.00;0.00;0.62;;;;;10.00;1.00;;;;;;2264767;61;1468;-83
2021/01/19 09:42:28;88763.00;0.30;154.17;12171.00;0.04;21.71;;;;;9.00;1.00;;;;;;2268138;61;1021;-82
2021/01/19 09:44:55;83221.00;0.28;144.60;0.00;0.00;0.62;;;;;8.30;1.00;;;;;;2268337;61;968;-82
2021/01/19 09:47:24;118096.00;0.39;204.80;0.00;0.00;0.62;;;;;8.20;1.00;;;;;;2260971;61;934;-82
2021/01/19 09:49:54;68927.00;0.23;119.91;0.00;0.00;0.62;;;;;8.90;1.00;;;;;;2263954;61;1427;-84
2021/01/19 09:52:30;116036.00;0.39;201.24;44175.00;0.15;77.11;;;;;9.30;1.00;;;;;;2265432;61;941;-84
2021/01/19 09:55:09;38005.00;0.13;66.44;0.00;0.00;0.62;;;;;9.10;1.00;;;;;;2271843;61;1032;-82
2021/01/19 09:57:36;10996.00;0.04;19.67;0.00;0.00;0.62;;;;;8.70;1.00;;;;;;2271830;61;1989;-85
2021/01/19 10:00:06;66005.00;0.22;114.86;0.00;0.00;0.62;;;;;8.50;1.00;;;;;;2268718;61;1360;-83
2021/01/19 10:02:32;90772.00;0.30;157.64;0.00;0.00;0.62;;;;;8.00;1.00;;;;;;2271668;61;1032;-82
2021/01/19 10:05:00;15174.00;0.05;26.91;0.00;0.00;0.62;;;;;8.00;1.00;;;;;;2265434;61;1029;-83
2021/01/19 10:07:31;0.00;0.00;0.62;0.00;0.00;0.62;;;;;8.10;1.00;;;;;;2268994;61;947;-80
2021/01/19 10:10:11;45237.00;0.15;78.95;0.00;0.00;0.62;;;;;8.10;1.00;;;;;;2268527;61;1453;-81
2021/01/19 10:12:40;254401.00;0.85;439.52;89447.00;0.30;155.35;;;;;8.20;1.00;;;;;;2264000;61;993;-82
2021/01/19 10:15:08;220607.00;0.74;381.39;86659.00;0.29;150.54;;;;;8.80;1.00;;;;;;2263858;61;1037;-82
2021/01/19 10:17:36;193853.00;0.65;335.34;92067.00;0.31;159.88;;;;;8.50;1.00;;;;;;2264071;61;1912;-83
2021/01/19 10:20:13;501534.00;1.67;864.46;151490.00;0.50;262.38;;;;;8.80;1.00;;;;;;2255784;61;1346;-81
2021/01/19 10:22:41;399498.00;1.33;688.94;96510.00;0.32;167.55;;;;;9.40;1.00;;;;;;2252567;61;982;-84
2021/01/19 10:25:10;327444.00;1.09;565.09;95029.00;0.32;164.99;;;;;9.30;1.00;;;;;;2258234;61;1751;-80
2021/01/19 10:27:43;283431.00;0.94;489.44;89093.00;0.30;154.74;;;;;9.20;1.00;;;;;;2263997;61;1608;-82
2021/01/19 10:30:12;195956.00;0.65;338.96;88230.00;0.29;153.25;;;;;9.60;1.00;;;;;;2266310;61;1395;-82
2021/01/19 10:32:47;7750.00;0.03;14.05;0.00;0.00;0.62;;;;;9.50;1.00;;;;;;2271930;60;1590;-82
2021/01/19 10:35:23;49426.00;0.16;86.19;0.00;0.00;0.62;;;;;9.10;1.00;;;;;;2272653;60;1130;-83
2021/01/19 10:37:55;32792.00;0.11;57.42;0.00;0.00;0.62;;;;;9.00;1.00;;;;;;2276100;61;1923;-84
2021/01/19 10:40:22;76114.00;0.25;132.32;0.00;0.00;0.62;;;;;9.10;1.00;;;;;;2281263;61;1285;-86
2021/01/19 10:42:49;33092.00;0.11;57.93;0.00;0.00;0.62;;;;;9.70;1.00;;;;;;2281093;61;1110;-80
2021/01/19 10:45:27;171924.00;0.57;297.58;0.00;0.00;0.62;;;;;9.50;1.00;;;;;;2281113;61;1715;-83
2021/01/19 10:47:55;57610.00;0.19;100.35;0.00;0.00;0.62;;;;;9.20;1.00;;;;;;2281148;61;1773;-85
2021/01/19 10:50:27;11866.00;0.04;21.18;0.00;0.00;0.62;;;;;9.20;1.00;;;;;;2280985;61;1716;-83
2021/01/19 10:52:55;13420.00;0.04;23.87;0.00;0.00;0.62;;;;;9.40;1.00;;;;;;2281121;61;1615;-81
2021/01/19 10:55:22;51943.00;0.17;90.55;0.00;0.00;0.62;;;;;9.30;1.00;;;;;;2280294;61;1690;-81
2021/01/19 10:57:53;40554.00;0.14;70.85;0.00;0.00;0.62;;;;;9.40;1.00;;;;;;2281139;61;1982;-83
2021/01/19 11:00:21;104008.00;0.35;180.49;0.00;0.00;0.62;;;;;9.50;1.00;;;;;;2280988;61;1729;-84
2021/01/19 11:02:47;140088.00;0.47;242.72;11718.00;0.04;20.93;;;;;9.90;1.00;;;;;;2281051;61;1248;-83
2021/01/19 11:05:14;50178.00;0.17;87.49;0.00;0.00;0.62;;;;;9.90;1.00;;;;;;2281011;61;1781;-83
2021/01/19 11:07:44;26601.00;0.09;46.70;0.00;0.00;0.62;;;;;10.10;1.00;;;;;;2280926;61;1638;-84
2021/01/19 11:10:12;43408.00;0.14;75.78;0.00;0.00;0.62;;;;;10.10;1.00;;;;;;2280976;61;1757;-84
2021/01/19 11:12:38;45545.00;0.15;79.48;0.00;0.00;0.62;;;;;9.80;1.00;;;;;;2281053;61;1792;-84
2021/01/19 11:15:07;184461.00;0.61;319.17;0.00;0.00;0.62;;;;;10.10;1.00;;;;;;2274031;61;1665;-83
2021/01/19 11:17:35;32195.00;0.11;56.38;0.00;0.00;0.62;;;;;10.20;1.00;;;;;;2280923;61;1994;-84
2021/01/19 11:20:02;0.00;0.00;0.62;0.00;0.00;0.62;;;;;10.30;1.00;;;;;;2281146;61;1293;-80
2021/01/19 11:22:29;12755.00;0.04;22.72;0.00;0.00;0.62;;;;;10.50;1.00;;;;;;2281081;61;1738;-85
2021/01/19 11:24:57;6188.00;0.02;11.34;0.00;0.00;0.62;;;;;10.80;1.00;;;;;;2280931;61;1722;-83
2021/01/19 11:27:23;0.00;0.00;0.62;0.00;0.00;0.62;;;;;11.00;1.00;;;;;;2281054;61;1616;-82
2021/01/19 11:29:50;9437.00;0.03;16.97;0.00;0.00;0.62;;;;;11.00;1.00;;;;;;2280970;61;1702;-86
2021/01/19 11:32:17;50812.00;0.17;88.59;0.00;0.00;0.62;;;;;11.30;1.00;;;;;;2280835;61;1034;-86
2021/01/19 11:34:44;103042.00;0.34;178.82;0.00;0.00;0.62;;;;;11.30;1.00;;;;;;2273879;61;993;-84
2021/01/19 11:37:12;0.00;0.00;0.62;0.00;0.00;0.62;;;;;10.70;1.00;;;;;;2272585;61;2002;-83
2021/01/19 11:39:38;308732.00;1.03;532.93;35529.00;0.12;62.15;;;;;10.70;1.00;;;;;;2264163;61;961;-83
2021/01/19 11:42:05;19029.00;0.06;33.59;0.00;0.00;0.62;;;;;10.20;1.00;;;;;;2264395;61;1411;-84
2021/01/19 11:44:32;97917.00;0.33;169.98;0.00;0.00;0.62;;;;;9.60;1.00;;;;;;2260921;61;935;-82
2021/01/19 11:46:58;27148.00;0.09;47.65;0.00;0.00;0.62;;;;;9.40;1.00;;;;;;2264307;61;985;-82
2021/01/19 11:49:25;172805.00;0.58;299.10;0.00;0.00;0.62;;;;;8.90;1.00;;;;;;2254601;61;1003;-83
2021/01/19 11:51:52;207666.00;0.69;359.12;48496.00;0.16;84.59;;;;;9.20;1.00;;;;;;2254511;61;1743;-83
2021/01/19 11:54:20;166321.00;0.55;287.93;0.00;0.00;0.62;;;;;9.20;1.00;;;;;;2265399;61;1020;-85
2021/01/19 11:56:48;59199.00;0.20;103.09;0.00;0.00;0.62;;;;;9.40;1.00;;;;;;2261338;61;958;-85
2021/01/19 11:59:16;312364.00;1.04;539.17;47998.00;0.16;83.72;;;;;9.60;1.00;;;;;;2268417;61;1928;-82
2021/01/19 12:01:43;61838.00;0.21;107.65;0.00;0.00;0.62;;;;;9.70;1.00;;;;;;2260435;61;1245;-83
2021/01/19 12:04:11;11921.00;0.04;21.28;0.00;0.00;0.62;;;;;9.80;1.00;;;;;;2252243;61;1017;-84
2021/01/19 12:06:39;20569.00;0.07;36.26;0.00;0.00;0.62;;;;;9.70;1.00;;;;;;2244114;61;984;-83
2021/01/19 12:09:07;44976.00;0.15;78.50;0.00;0.00;0.62;;;;;10.10;1.00;;;;;;2241177;61;1022;-84
2021/01/19 12:11:38;51213.00;0.17;89.28;0.00;0.00;0.62;;;;;10.00;1.00;;;;;;2244473;61;1469;-85
2021/01/19 12:14:05;202760.00;0.68;350.67;90818.00;0.30;157.72;;;;;9.80;1.00;;;;;;2246742;61;1023;-84
2021/01/19 12:16:31;203594.00;0.68;352.11;86480.00;0.29;150.23;;;;;9.30;1.00;;;;;;2256388;61;1032;-82
2021/01/19 12:18:57;385543.00;1.29;664.95;140231.00;0.47;242.97;;;;;9.50;1.00;;;;;;2257649;61;2003;-83
2021/01/19 12:21:24;339775.00;1.13;586.29;129296.00;0.43;224.12;;;;;9.50;1.00;;;;;;2255763;61;1352;-84
2021/01/19 12:23:51;282004.00;0.94;486.98;117360.00;0.39;203.53;;;;;9.20;1.00;;;;;;2273758;61;994;-83
2021/01/19 12:26:18;319818.00;1.07;551.99;106924.00;0.36;185.52;;;;;9.50;1.00;;;;;;2280988;61;938;-84
2021/01/19 12:28:45;181480.00;0.60;314.04;96579.00;0.32;167.67;;;;;10.10;1.00;;;;;;2272414;61;953;-83
2021/01/19 12:31:12;201163.00;0.67;347.93;78460.00;0.26;136.38;;;;;10.80;1.00;;;;;;2260146;61;1808;-83
2021/01/19 12:33:40;221232.00;0.74;382.46;100118.00;0.33;173.78;;;;;11.10;1.00;;;;;;2256930;61;1009;-83
2021/01/19 12:36:07;377194.00;1.26;650.60;85929.00;0.29;149.28;;;;;11.40;1.00;;;;;;2260447;61;1052;-84
2021/01/19 12:38:34;169546.00;0.57;293.48;88633.00;0.30;153.95;;;;;10.90;1.00;;;;;;2256223;61;1919;-83
2021/01/19 12:41:01;172819.00;0.58;299.12;86155.00;0.29;149.67;;;;;10.50;1.00;;;;;;2256195;61;1440;-84
2021/01/19 12:43:27;198637.00;0.66;343.58;86343.00;0.29;149.99;;;;;10.30;1.00;;;;;;2252841;61;1046;-82
2021/01/19 12:45:54;189092.00;0.63;327.15;91012.00;0.30;158.06;;;;;10.00;1.00;;;;;;2257212;61;1044;-84
2021/01/19 12:48:21;165501.00;0.55;286.52;86575.00;0.29;150.39;;;;;9.70;1.00;;;;;;2265543;61;978;-82
2021/01/19 12:50:48;167290.00;0.56;289.60;84274.00;0.28;146.42;;;;;9.30;1.00;;;;;;2264184;61;1385;-83
2021/01/19 12:53:14;194983.00;0.65;337.29;96811.00;0.32;168.07;;;;;8.90;1.00;;;;;;2261466;61;1015;-83
2021/01/19 12:55:41;265591.00;0.89;458.76;82420.00;0.27;143.22;;;;;8.40;1.00;;;;;;2264782;61;1033;-83
2021/01/19 12:58:08;213192.00;0.71;368.63;94781.00;0.32;164.56;;;;;8.50;1.00;;;;;;2267984;61;1918;-85
2021/01/19 13:00:35;336099.00;1.12;579.97;83479.00;0.28;145.05;;;;;8.60;1.00;;;;;;2264714;61;1338;-83
2021/01/19 13:03:01;167506.00;0.56;289.97;85360.00;0.28;148.30;;;;;8.90;1.00;;;;;;2268156;61;1017;-83
2021/01/19 13:05:28;234914.00;0.78;406.00;80171.00;0.27;139.33;;;;;8.80;1.00;;;;;;2259941;61;974;-82
2021/01/19 13:07:55;333908.00;1.11;576.20;90037.00;0.30;156.37;;;;;8.60;1.00;;;;;;2260861;61;1088;-83
2021/01/19 13:10:22;179691.00;0.60;310.96;91037.00;0.30;158.10;;;;;8.50;1.00;;;;;;2262368;61;1352;-84
2021/01/19 13:12:48;283619.00;0.95;489.76;85825.00;0.29;149.10;;;;;8.30;1.00;;;;;;2276076;61;964;-83
2021/01/19 13:15:17;315503.00;1.05;544.57;87764.00;0.29;152.45;;;;;8.10;1.00;;;;;;2272699;61;1116;-82
2021/01/19 13:17:44;253893.00;0.85;438.65;92093.00;0.31;159.92;;;;;8.40;1.00;;;;;;2276120;61;1994;-83
2021/01/19 13:20:13;375025.00;1.25;646.87;93794.00;0.31;162.86;;;;;7.80;1.00;;;;;;2294249;55;1973;-81
2021/01/19 13:22:42;530224.00;1.77;913.88;133513.00;0.45;231.39;;;;;7.70;1.00;;;;;;2273619;61;1365;-84
2021/01/19 13:25:15;353716.00;1.18;610.25;98014.00;0.33;170.14;;;;;7.70;1.00;;;;;;2271920;61;1009;-82
2021/01/19 13:27:48;369544.00;1.23;637.45;84063.00;0.28;146.06;;;;;8.10;1.00;;;;;;2265471;61;1005;-82
2021/01/19 13:30:23;787379.00;2.62;1359.12;87038.00;0.29;151.19;;;;;8.10;1.00;;;;;;2272240;61;1453;-83
2021/01/19 13:32:52;464638.00;1.55;800.96;0.00;0.00;0.62;;;;;7.90;1.00;;;;;;2267648;61;963;-84
2021/01/19 13:35:25;576330.00;1.92;993.37;0.00;0.00;0.62;;;;;8.00;1.00;;;;;;2268040;61;1025;-84
2021/01/19 13:37:51;533486.00;1.78;919.50;11438.00;0.04;20.44;;;;;7.90;1.00;;;;;;2259764;61;1996;-84
2021/01/19 13:40:21;521481.00;1.74;898.82;40443.00;0.13;70.65;;;;;7.70;1.00;;;;;;2261295;61;1440;-85
2021/01/19 13:43:10;328284.00;1.09;566.54;0.00;0.00;0.62;;;;;7.80;1.00;;;;;;2260048;61;1017;-85
2021/01/19 13:45:57;119876.00;0.40;207.87;0.00;0.00;0.62;;;;;8.00;1.00;;;;;;2256866;61;986;-85
2021/01/19 13:48:28;234868.00;0.78;405.92;0.00;0.00;0.62;;;;;8.10;1.00;;;;;;2260158;61;1090;-82
2021/01/19 13:50:56;183399.00;0.61;317.34;0.00;0.00;0.62;;;;;8.20;1.00;;;;;;2255363;61;1248;-84
2021/01/19 13:53:23;179623.00;0.60;310.84;0.00;0.00;0.62;;;;;8.20;1.00;;;;;;2255682;61;1021;-83
2021/01/19 13:55:52;241619.00;0.81;417.54;59092.00;0.20;102.91;;;;;8.20;1.00;;;;;;2255887;61;1710;-83
2021/01/19 13:58:19;217362.00;0.72;375.80;149.00;0.00;0.88;;;;;8.10;1.00;;;;;;2248053;61;2011;-83
2021/01/19 14:00:51;158995.00;0.53;275.31;0.00;0.00;0.62;;;;;7.80;1.00;;;;;;2250172;61;1270;-82
2021/01/19 14:03:22;4034.00;0.01;7.61;0.00;0.00;0.62;;;;;8.10;1.00;;;;;;2247910;61;962;-81
2021/01/19 14:05:58;133993.00;0.45;232.21;0.00;0.00;0.62;;;;;8.30;1.00;;;;;;2251805;61;1005;-82
2021/01/19 14:08:32;215259.00;0.72;372.19;10161.00;0.03;18.23;;;;;8.00;1.00;;;;;;2243740;61;943;-82
2021/01/19 14:18:23;259710.00;0.87;448.65;12320.00;0.04;21.97;;;;;8.10;1.00;;;;;;2290363;60;1891;-82
2021/01/19 14:20:49;185317.00;0.62;320.65;0.00;0.00;0.62;;;;;8.10;1.00;;;;;;2284405;60;1345;-83
2021/01/19 14:23:16;18727.00;0.06;33.07;0.00;0.00;0.62;;;;;7.80;1.00;;;;;;2284418;60;1035;-83
2021/01/19 14:25:43;60602.00;0.20;105.52;0.00;0.00;0.62;;;;;8.00;1.00;;;;;;2329854;40;4080;31
2021/01/19 14:28:17;319712.00;1.07;551.80;95941.00;0.32;166.57;;;;;7.60;1.00;;;;;;2285929;60;1369;-82
2021/01/19 14:30:44;77817.00;0.26;135.27;0.00;0.00;0.62;;;;;7.90;1.00;;;;;;2274084;60;1333;-81
2021/01/19 14:33:10;132542.00;0.44;229.71;5774.00;0.02;10.63;;;;;7.90;1.00;;;;;;2271863;61;985;-82
2021/01/19 14:35:38;15669.00;0.05;27.77;0.00;0.00;0.62;;;;;7.90;1.00;;;;;;2272149;61;955;-84
2021/01/19 14:43:00;21094.00;0.07;37.16;0.00;0.00;0.62;;;;;7.80;1.00;;;;;;2290234;60;1388;-81
2021/01/19 14:45:26;7007.00;0.02;12.76;0.00;0.00;0.62;;;;;7.50;1.00;;;;;;2279696;60;959;-81
2021/01/19 14:47:53;143538.00;0.48;248.67;0.00;0.00;0.62;;;;;7.40;1.00;;;;;;2279898;60;1043;-84
2021/01/19 15:15:14;220238.00;0.73;380.75;38509.00;0.13;67.31;;;;;6.90;1.00;;;;;;2295269;60;895;-86
2021/01/19 15:25:04;47808.00;0.16;83.40;0.00;0.00;0.62;;;;;7.60;1.00;;;;;;2490603;39;3789;31
2021/01/19 15:34:55;12439.00;0.04;22.17;0.00;0.00;0.62;;;;;7.70;1.00;;;;;;2515975;40;3476;31
2021/01/19 15:52:18;431905.00;1.44;744.66;86053.00;0.29;149.49;;;;;7.30;1.00;;;;;;2286437;61;1162;-86
2021/01/19 17:41:47;0.00;0.00;0.62;0.00;0.00;0.62;;;;;9.60;1.00;;;;;;2295416;60;1405;-83
2021/01/19 17:54:07;55798.00;0.19;97.21;0.00;0.00;0.62;;;;;10.10;1.00;;;;;;2428490;39;3738;31
2021/01/19 18:03:58;28841.00;0.10;50.58;0.00;0.00;0.62;;;;;10.00;1.00;;;;;;2441957;39;3740;31
2021/01/19 18:48:17;0.00;0.00;0.62;0.00;0.00;0.62;;;;;12.00;1.00;;;;;;2392583;40;3588;31
2021/01/19 22:14:24;23096.00;0.08;40.63;0.00;0.00;0.62;;;;;11.50;1.00;;;;;;2286545;60;1398;-84
2021/01/19 22:16:50;138562.00;0.46;240.09;0.00;0.00;0.62;;;;;11.30;1.00;;;;;;2284600;60;1769;-83
2021/01/19 22:21:48;7210.00;0.02;13.12;0.00;0.00;0.62;;;;;11.40;1.00;;;;;;2286290;60;1477;-84
2021/01/19 22:24:14;143233.00;0.48;248.14;0.00;0.00;0.62;;;;;11.60;1.00;;;;;;2283393;60;1716;-83
2021/01/19 22:26:41;198006.00;0.66;342.49;0.00;0.00;0.62;;;;;11.60;1.00;;;;;;2276099;61;1058;-85
2021/01/19 22:29:07;182378.00;0.61;315.58;0.00;0.00;0.62;;;;;11.20;1.00;;;;;;2271588;61;1517;-85
2021/01/19 22:31:35;200534.00;0.67;346.84;22024.00;0.07;38.77;;;;;10.30;1.00;;;;;;2272177;61;1376;-86
2021/01/19 22:34:02;191770.00;0.64;331.76;0.00;0.00;0.62;;;;;10.10;1.00;;;;;;2272289;61;1096;-84
2021/01/19 22:36:31;84468.00;0.28;146.75;0.00;0.00;0.62;;;;;10.10;1.00;;;;;;2271760;61;1596;-83
2021/01/19 22:38:58;206904.00;0.69;357.81;0.00;0.00;0.62;;;;;10.10;1.00;;;;;;2272354;61;2003;-85
2021/01/19 22:41:25;1113.00;0.00;2.55;0.00;0.00;0.62;;;;;9.90;1.00;;;;;;2267700;61;1310;-85
2021/01/19 22:43:51;146180.00;0.49;253.22;0.00;0.00;0.62;;;;;10.20;1.00;;;;;;2269237;61;1324;-84